Andersen AFB, Guam
Current Conditions -  °F | °C
As of 3:58 PM on Wednesday 22 Oct 2014 (Local Time) from PGUA Reporting Station
Few Clouds Few Clouds  
Wind Chill: 84°   Ceiling: Unl
Heat Index: 92°   Visibility: 10mi
Dew Point: 75°   Wind: 8mph
Humidity: 73%   Direction: 50°NE
Pressure: 29.78"   Gusts: NA
Location:  13.58°N, 144.92°E
Report Text: PGUA 220558Z AUTO 05007KT 10SM FEW019 29/24 A2978 RMK AO2 SLP075 T02900237 10297 20286 55005 $
Loading
Personal Weather Stations






























Interactive Weather Map
Tropical Storm Tracking
New forecast layout! Learn more

10-Day Weather Forecast

Advertisements
Track Severe Weather on mobile